createdAt,value
2023-02-19T00:01:09.480Z,96
2023-02-19T00:03:41.923Z,102
2023-02-19T00:06:14.825Z,101
2023-02-19T00:08:51.665Z,99
2023-02-19T00:11:29.671Z,99
2023-02-19T00:14:02.897Z,96
2023-02-19T00:16:39.665Z,95
2023-02-19T00:19:17.065Z,91
2023-02-19T00:21:50.969Z,92
2023-02-19T00:24:23.706Z,92
2023-02-19T00:26:56.508Z,92
2023-02-19T00:29:34.436Z,88
2023-02-19T00:32:07.844Z,90
2023-02-19T00:34:40.583Z,89
2023-02-19T00:37:19.424Z,88
2023-02-19T00:39:52.852Z,91
2023-02-19T00:42:25.609Z,95
2023-02-19T00:45:02.481Z,89
2023-02-19T00:47:35.708Z,88
2023-02-19T00:50:12.546Z,92
2023-02-19T00:52:45.303Z,92
2023-02-19T00:55:19.386Z,92
2023-02-19T00:57:52.169Z,89
2023-02-19T01:00:29.037Z,92
2023-02-19T01:03:06.416Z,86
2023-02-19T01:05:39.443Z,87
2023-02-19T01:08:17.178Z,82
2023-02-19T01:10:54.417Z,89
2023-02-19T01:13:27.357Z,85
2023-02-19T01:16:04.199Z,84
2023-02-19T01:18:37.597Z,86
2023-02-19T01:21:15.174Z,77
2023-02-19T01:23:48.400Z,80
2023-02-19T01:26:25.213Z,83
2023-02-19T01:28:58.352Z,76
2023-02-19T01:31:40.178Z,80
2023-02-19T01:34:14.257Z,78
2023-02-19T01:36:47.047Z,79
2023-02-19T01:39:19.839Z,84
2023-02-19T01:41:53.048Z,80
2023-02-19T01:44:25.899Z,76
2023-02-19T01:46:58.705Z,76
2023-02-19T01:49:31.505Z,76
2023-02-19T01:52:07.397Z,82
2023-02-19T01:54:44.623Z,76
2023-02-19T01:57:17.687Z,82
2023-02-19T01:59:50.612Z,81
2023-02-19T02:02:27.480Z,69
2023-02-19T02:05:04.294Z,73
2023-02-19T02:07:41.353Z,76
2023-02-19T02:10:14.888Z,76
2023-02-19T02:12:47.266Z,77
2023-02-19T02:15:20.161Z,77
2023-02-19T02:17:57.472Z,80
2023-02-19T02:20:34.306Z,80
2023-02-19T02:23:11.623Z,83
2023-02-19T02:25:44.411Z,90
2023-02-19T02:28:21.125Z,85
2023-02-19T02:30:58.631Z,80
2023-02-19T02:33:31.554Z,89
2023-02-19T02:36:04.267Z,80
2023-02-19T02:38:41.076Z,80
2023-02-19T02:41:17.217Z,75
2023-02-19T02:43:54.072Z,78
2023-02-19T02:46:31.482Z,82
2023-02-19T02:49:04.260Z,81
2023-02-19T02:51:37.008Z,73
2023-02-19T02:54:14.384Z,72
2023-02-19T02:56:48.258Z,74
2023-02-19T02:59:25.315Z,66
2023-02-19T03:02:02.167Z,71
2023-02-19T03:04:39.142Z,71
2023-02-19T03:07:12.354Z,69
2023-02-19T03:09:45.008Z,75
2023-02-19T03:12:18.009Z,70
2023-02-19T03:14:55.331Z,63
2023-02-19T03:17:28.201Z,60
2023-02-19T03:20:05.134Z,70
2023-02-19T03:22:37.953Z,69
2023-02-19T03:25:14.865Z,61
2023-02-19T03:27:51.721Z,61
2023-02-19T03:30:24.681Z,63
2023-02-19T03:32:58.551Z,56
2023-02-19T03:35:31.444Z,58
2023-02-19T03:38:04.445Z,58
2023-02-19T03:40:41.309Z,68
2023-02-19T03:43:15.334Z,65
2023-02-19T03:45:48.651Z,58
2023-02-19T03:48:22.489Z,59
2023-02-19T03:50:59.753Z,60
2023-02-19T03:53:33.213Z,60
2023-02-19T03:56:10.132Z,60
2023-02-19T03:58:43.513Z,57
2023-02-19T04:01:16.374Z,63
2023-02-19T04:03:49.237Z,57
2023-02-19T04:06:22.148Z,64
2023-02-19T04:08:59.069Z,60
2023-02-19T04:11:31.948Z,66
2023-02-19T04:14:04.862Z,71
2023-02-19T04:16:37.788Z,60
2023-02-19T04:19:10.712Z,64
2023-02-19T04:21:43.556Z,59
2023-02-19T04:24:20.558Z,58
2023-02-19T04:26:53.308Z,68
2023-02-19T04:29:26.156Z,63
2023-02-19T04:31:59.521Z,60
2023-02-19T04:34:32.409Z,65
2023-02-19T04:37:05.183Z,59
2023-02-19T04:39:38.092Z,65
2023-02-19T04:42:11.031Z,65
2023-02-19T04:44:47.878Z,64
2023-02-19T04:47:24.951Z,56
2023-02-19T04:49:57.926Z,56
2023-02-19T04:52:30.848Z,61
2023-02-19T04:55:07.690Z,56
2023-02-19T04:57:40.672Z,56
2023-02-19T05:00:13.527Z,64
2023-02-19T05:02:47.389Z,58
2023-02-19T05:05:24.383Z,56
2023-02-19T05:07:57.295Z,60
2023-02-19T05:10:30.186Z,64
2023-02-19T05:13:03.164Z,67
2023-02-19T05:15:36.032Z,56
2023-02-19T05:18:09.007Z,64
2023-02-19T05:20:42.207Z,56
2023-02-19T05:23:14.677Z,60
2023-02-19T05:25:47.655Z,62
2023-02-19T05:28:24.557Z,56
2023-02-19T05:30:57.999Z,59
2023-02-19T05:33:30.831Z,60
2023-02-19T05:36:03.639Z,56
2023-02-19T05:38:36.614Z,56
2023-02-19T05:41:09.868Z,60
2023-02-19T05:43:42.403Z,60
2023-02-19T05:46:15.326Z,58
2023-02-19T05:48:52.210Z,60
2023-02-19T05:51:25.093Z,59
2023-02-19T05:53:58.084Z,65
2023-02-19T05:56:30.956Z,64
2023-02-19T05:59:07.903Z,64
2023-02-19T06:01:40.876Z,72
2023-02-19T06:04:13.819Z,71
2023-02-19T06:06:50.710Z,76
2023-02-19T06:09:23.649Z,74
2023-02-19T06:11:56.519Z,75
2023-02-19T06:14:29.636Z,81
2023-02-19T06:17:02.425Z,80
2023-02-19T06:19:35.413Z,77
2023-02-19T06:22:12.232Z,76
2023-02-19T06:24:45.239Z,80
2023-02-19T06:27:18.169Z,74
2023-02-19T06:29:51.012Z,76
2023-02-19T06:32:24.129Z,80
2023-02-19T06:34:56.897Z,74
2023-02-19T06:37:30.223Z,72
2023-02-19T06:40:03.544Z,76
2023-02-19T06:42:36.429Z,76
2023-02-19T06:45:17.791Z,80
2023-02-19T06:47:50.807Z,80
2023-02-19T06:50:23.560Z,83
2023-02-19T06:53:00.606Z,82
2023-02-19T06:55:33.506Z,83
2023-02-19T06:58:04.476Z,72
2023-02-19T07:00:37.319Z,90
2023-02-19T07:03:10.186Z,92
2023-02-19T07:05:43.073Z,103
2023-02-19T07:08:16.070Z,91
2023-02-19T07:10:48.766Z,88
2023-02-19T07:13:21.772Z,85
2023-02-19T07:15:54.701Z,89
2023-02-19T07:18:27.563Z,77
2023-02-19T07:21:00.683Z,69
2023-02-19T07:23:37.099Z,69
2023-02-19T07:26:14.736Z,64
2023-02-19T07:28:47.580Z,60
2023-02-19T07:31:20.565Z,57
2023-02-19T07:33:57.468Z,56
2023-02-19T07:36:30.347Z,50
2023-02-19T07:39:03.260Z,56
2023-02-19T07:41:36.092Z,52
2023-02-19T07:44:09.036Z,46
2023-02-19T07:46:41.945Z,53
2023-02-19T07:49:18.760Z,44
2023-02-19T07:51:51.831Z,50
2023-02-19T07:54:24.742Z,49
2023-02-19T07:56:57.700Z,45
2023-02-19T07:59:34.719Z,40
2023-02-19T08:02:07.707Z,44
2023-02-19T08:04:40.237Z,42
2023-02-19T08:07:17.161Z,44
2023-02-19T08:09:54.206Z,39
2023-02-19T08:12:27.245Z,46
2023-02-19T08:15:00.231Z,46
2023-02-19T08:17:37.196Z,37
2023-02-19T08:20:10.059Z,41
2023-02-19T08:22:42.917Z,49
2023-02-19T08:25:16.313Z,52
2023-02-19T08:27:52.691Z,42
2023-02-19T08:30:26.482Z,42
2023-02-19T08:33:01.288Z,48
2023-02-19T08:35:32.642Z,40
2023-02-19T08:38:10.455Z,42
2023-02-19T08:40:43.617Z,41
2023-02-19T08:43:17.292Z,48
2023-02-19T08:45:49.253Z,50
2023-02-19T08:48:22.983Z,48
2023-02-19T08:50:55.046Z,46
2023-02-19T08:53:33.922Z,36
2023-02-19T08:56:11.187Z,45
2023-02-19T08:58:46.633Z,46
2023-02-19T09:01:19.410Z,47
2023-02-19T09:03:57.189Z,40
2023-02-19T09:06:30.975Z,44
2023-02-19T09:09:04.195Z,36
2023-02-19T09:11:37.684Z,49
2023-02-19T09:14:10.855Z,51
2023-02-19T09:16:45.186Z,51
2023-02-19T09:19:18.554Z,51
2023-02-19T09:21:51.730Z,45
2023-02-19T09:24:29.736Z,38
2023-02-19T09:27:03.567Z,55
2023-02-19T09:29:36.886Z,48
2023-02-19T09:32:14.996Z,48
2023-02-19T09:34:47.803Z,51
2023-02-19T09:37:21.367Z,49
2023-02-19T09:39:55.404Z,55
2023-02-19T09:42:30.884Z,50
2023-02-19T09:45:07.719Z,56
2023-02-19T09:47:41.308Z,53
2023-02-19T09:50:14.479Z,54
2023-02-19T09:52:47.307Z,57
2023-02-19T09:55:21.247Z,52
2023-02-19T09:57:58.981Z,60
2023-02-19T10:00:32.317Z,54
2023-02-19T10:03:05.208Z,56
2023-02-19T10:05:44.010Z,60
2023-02-19T10:08:16.871Z,63
2023-02-19T10:10:50.980Z,56
2023-02-19T10:13:28.237Z,58
2023-02-19T10:16:01.217Z,51
2023-02-19T10:18:38.840Z,44
2023-02-19T10:21:13.083Z,50
2023-02-19T10:23:45.805Z,55
2023-02-19T10:26:20.005Z,37
2023-02-19T10:28:52.652Z,49
2023-02-19T10:31:29.989Z,42
2023-02-19T10:34:03.659Z,42
2023-02-19T10:36:37.580Z,48
2023-02-19T10:39:11.164Z,46
2023-02-19T10:41:48.432Z,44
2023-02-19T10:44:26.499Z,36
2023-02-19T10:47:02.567Z,40
2023-02-19T10:49:36.614Z,40
2023-02-19T10:52:09.945Z,44
2023-02-19T10:54:42.664Z,48
2023-02-19T10:57:15.390Z,48
2023-02-19T10:59:53.265Z,42
2023-02-19T11:02:29.390Z,32
2023-02-19T11:05:03.113Z,40
2023-02-19T11:07:36.971Z,40
2023-02-19T11:10:09.290Z,42
2023-02-19T11:12:43.259Z,40
2023-02-19T11:15:20.288Z,32
2023-02-19T11:17:53.152Z,43
2023-02-19T11:20:26.861Z,44
2023-02-19T11:23:03.101Z,41
2023-02-19T11:25:42.235Z,37
2023-02-19T11:28:14.099Z,38
2023-02-19T11:30:52.943Z,36
2023-02-19T11:33:26.359Z,33
2023-02-19T11:36:01.126Z,39
2023-02-19T11:38:38.398Z,38
2023-02-19T11:41:11.742Z,36
2023-02-19T11:43:49.066Z,32
2023-02-19T11:46:22.056Z,39
2023-02-19T11:48:54.970Z,32
2023-02-19T11:51:27.940Z,29
2023-02-19T11:54:01.646Z,37
2023-02-19T11:56:39.000Z,29
2023-02-19T11:59:11.944Z,40
2023-02-19T12:01:44.867Z,43
2023-02-19T12:04:17.857Z,37
2023-02-19T12:06:50.569Z,29
2023-02-19T12:09:23.500Z,36
2023-02-19T12:12:00.346Z,24
2023-02-19T12:14:34.322Z,29
2023-02-19T12:17:12.122Z,32
2023-02-19T12:19:50.067Z,41
2023-02-19T12:22:26.448Z,31
2023-02-19T12:25:04.362Z,28
2023-02-19T12:27:38.253Z,27
2023-02-19T12:30:12.260Z,26
2023-02-19T12:32:46.352Z,26
2023-02-19T12:35:20.034Z,31
2023-02-19T12:37:57.958Z,25
2023-02-19T12:40:35.264Z,32
2023-02-19T12:43:09.016Z,28
2023-02-19T12:45:42.481Z,30
2023-02-19T12:48:15.879Z,25
2023-02-19T12:50:48.916Z,27
2023-02-19T12:53:26.502Z,28
2023-02-19T12:56:00.660Z,24
2023-02-19T12:58:34.623Z,28
2023-02-19T13:01:08.189Z,32
2023-02-19T13:03:41.714Z,29
2023-02-19T13:06:15.456Z,29
2023-02-19T13:09:05.206Z,31
2023-02-19T13:11:24.429Z,37
2023-02-19T13:14:00.226Z,28
2023-02-19T13:16:34.439Z,31
2023-02-19T13:19:11.192Z,31
2023-02-19T13:21:44.103Z,32
2023-02-19T13:24:20.351Z,30
2023-02-19T13:26:58.148Z,32
2023-02-19T13:29:35.560Z,32
2023-02-19T13:32:13.319Z,28
2023-02-19T13:34:50.645Z,30
2023-02-19T13:37:24.642Z,33
2023-02-19T13:39:58.159Z,32
2023-02-19T13:42:35.541Z,30
2023-02-19T13:45:09.358Z,29
2023-02-19T13:47:47.384Z,26
2023-02-19T13:50:26.040Z,28
2023-02-19T13:52:58.863Z,33
2023-02-19T13:55:35.814Z,28
2023-02-19T13:58:09.813Z,30
2023-02-19T14:00:42.713Z,32
2023-02-19T14:03:16.418Z,35
2023-02-19T14:05:53.320Z,28
2023-02-19T14:08:26.750Z,35
2023-02-19T14:11:04.791Z,22
2023-02-19T14:13:37.432Z,37
2023-02-19T14:16:16.108Z,28
2023-02-19T14:18:50.183Z,28
2023-02-19T14:21:23.454Z,31
2023-02-19T14:24:00.436Z,32
2023-02-19T14:26:33.292Z,33
2023-02-19T14:29:10.299Z,25
2023-02-19T14:31:43.348Z,28
2023-02-19T14:34:16.883Z,24
2023-02-19T14:36:50.370Z,32
2023-02-19T14:39:28.079Z,26
2023-02-19T14:42:05.594Z,18
2023-02-19T14:44:38.589Z,32
2023-02-19T14:47:11.999Z,40
2023-02-19T14:49:48.949Z,26
2023-02-19T14:52:26.146Z,26
2023-02-19T14:55:01.093Z,32
2023-02-19T14:57:34.698Z,27
2023-02-19T15:00:14.022Z,30
2023-02-19T15:02:45.581Z,49
2023-02-19T15:05:22.912Z,44
2023-02-19T15:08:00.566Z,28
2023-02-19T15:10:37.550Z,40
2023-02-19T15:13:10.316Z,35
2023-02-19T15:15:45.301Z,40
2023-02-19T15:18:17.681Z,38
2023-02-19T15:20:55.686Z,30
2023-02-19T15:23:29.050Z,32
2023-02-19T15:26:05.534Z,27
2023-02-19T15:28:39.047Z,40
2023-02-19T15:31:16.351Z,36
2023-02-19T15:33:51.949Z,42
2023-02-19T15:36:25.649Z,51
2023-02-19T15:38:58.443Z,48
2023-02-19T15:41:35.412Z,36
2023-02-19T15:44:09.439Z,38
2023-02-19T15:46:42.736Z,45
2023-02-19T15:49:15.987Z,40
2023-02-19T15:51:53.403Z,36
2023-02-19T15:54:29.403Z,39
2023-02-19T15:57:03.004Z,35
2023-02-19T15:59:37.200Z,48
2023-02-19T16:02:09.134Z,48
2023-02-19T16:04:42.454Z,48
2023-02-19T16:07:17.078Z,64
2023-02-19T16:09:50.926Z,50
2023-02-19T16:12:25.048Z,52
2023-02-19T16:15:02.885Z,44
2023-02-19T16:17:46.626Z,55
2023-02-19T16:20:20.194Z,57
2023-02-19T16:22:57.080Z,44
2023-02-19T16:25:30.107Z,54
2023-02-19T16:28:11.214Z,48
2023-02-19T16:30:49.180Z,56
2023-02-19T16:33:30.633Z,57
2023-02-19T16:36:04.829Z,56
2023-02-19T16:38:40.382Z,54
2023-02-19T16:41:14.277Z,42
2023-02-19T16:43:49.223Z,44
2023-02-19T16:46:30.740Z,37
2023-02-19T16:49:07.486Z,48
2023-02-19T16:51:40.656Z,45
2023-02-19T16:54:14.689Z,59
2023-02-19T16:56:48.564Z,51
2023-02-19T16:59:26.445Z,47
2023-02-19T17:02:04.145Z,56
2023-02-19T17:04:41.406Z,52
2023-02-19T17:07:14.948Z,55
2023-02-19T17:09:52.581Z,48
2023-02-19T17:12:29.650Z,48
2023-02-19T17:15:07.328Z,52
2023-02-19T17:17:44.064Z,56
2023-02-19T17:20:23.585Z,61
2023-02-19T17:22:58.097Z,58
2023-02-19T17:25:35.160Z,80
2023-02-19T17:28:13.776Z,79
2023-02-19T17:30:48.049Z,75
2023-02-19T17:33:26.090Z,77
2023-02-19T17:35:59.433Z,75
2023-02-19T17:38:32.666Z,65
2023-02-19T17:41:09.585Z,67
2023-02-19T17:43:42.391Z,71
2023-02-19T17:46:15.977Z,72
2023-02-19T17:48:49.015Z,80
2023-02-19T17:51:25.205Z,77
2023-02-19T17:53:59.396Z,87
2023-02-19T17:56:40.729Z,84
2023-02-19T17:59:21.475Z,79
2023-02-19T18:01:55.663Z,72
2023-02-19T18:04:32.071Z,76
2023-02-19T18:07:08.762Z,84
2023-02-19T18:09:41.280Z,95
2023-02-19T18:12:17.949Z,80
2023-02-19T18:14:56.130Z,76
2023-02-19T18:17:29.151Z,76
2023-02-19T18:20:03.189Z,77
2023-02-19T18:22:37.224Z,70
2023-02-19T18:25:11.067Z,69
2023-02-19T18:27:46.336Z,63
2023-02-19T18:30:19.259Z,61
2023-02-19T18:32:56.588Z,64
2023-02-19T18:35:30.265Z,65
2023-02-19T18:38:07.086Z,76
2023-02-19T18:40:46.748Z,87
2023-02-19T18:43:21.854Z,84
2023-02-19T18:45:59.473Z,79
2023-02-19T18:48:37.137Z,74
2023-02-19T18:51:14.208Z,65
2023-02-19T18:53:47.044Z,61
2023-02-19T18:56:21.258Z,63
2023-02-19T18:58:55.786Z,68
2023-02-19T19:01:32.322Z,64
2023-02-19T19:04:13.081Z,65
2023-02-19T19:06:46.200Z,64
2023-02-19T19:09:18.986Z,68
2023-02-19T19:11:53.209Z,72
2023-02-19T19:14:30.210Z,72
2023-02-19T19:17:02.939Z,78
2023-02-19T19:19:36.703Z,72
2023-02-19T19:22:12.503Z,66
2023-02-19T19:24:44.644Z,62
2023-02-19T19:27:18.164Z,64
2023-02-19T19:29:50.882Z,72
2023-02-19T19:32:24.583Z,76
2023-02-19T19:34:58.510Z,73
2023-02-19T19:37:35.393Z,64
2023-02-19T19:40:13.346Z,63
2023-02-19T19:42:48.155Z,65
2023-02-19T19:45:20.733Z,64
2023-02-19T19:47:57.507Z,61
2023-02-19T19:50:31.190Z,68
2023-02-19T19:53:04.344Z,66
2023-02-19T19:55:38.521Z,61
2023-02-19T19:58:11.359Z,57
2023-02-19T20:00:44.285Z,68
2023-02-19T20:03:21.893Z,59
2023-02-19T20:05:55.177Z,66
2023-02-19T20:08:29.152Z,61
2023-02-19T20:11:06.324Z,58
2023-02-19T20:13:39.034Z,64
2023-02-19T20:16:12.128Z,60
2023-02-19T20:18:51.484Z,64
2023-02-19T20:21:24.110Z,64
2023-02-19T20:23:58.096Z,68
2023-02-19T20:26:34.641Z,62
2023-02-19T20:29:09.535Z,61
2023-02-19T20:31:43.304Z,58
2023-02-19T20:34:19.769Z,62
2023-02-19T20:36:54.930Z,60
2023-02-19T20:39:31.865Z,59
2023-02-19T20:42:07.808Z,58
2023-02-19T20:44:45.075Z,60
2023-02-19T20:47:19.181Z,60
2023-02-19T20:49:52.003Z,59
2023-02-19T20:52:32.644Z,62
2023-02-19T20:55:12.884Z,60
2023-02-19T20:57:52.322Z,60
2023-02-19T21:00:25.071Z,60
2023-02-19T21:02:59.194Z,61
2023-02-19T21:05:32.910Z,52
2023-02-19T21:08:10.045Z,56
2023-02-19T21:10:47.936Z,56
2023-02-19T21:13:25.204Z,59
2023-02-19T21:16:02.071Z,59
2023-02-19T21:18:39.320Z,51
2023-02-19T21:21:19.177Z,55
2023-02-19T21:23:56.214Z,51
2023-02-19T21:26:34.320Z,59
2023-02-19T21:29:07.333Z,52
2023-02-19T21:31:42.114Z,39
2023-02-19T21:34:15.621Z,36
2023-02-19T21:36:48.002Z,36
2023-02-19T21:39:21.949Z,24
2023-02-19T21:41:55.590Z,23
2023-02-19T21:44:35.297Z,12
2023-02-19T21:47:09.234Z,21
2023-02-19T21:49:45.837Z,10
2023-02-19T21:52:18.747Z,16
2023-02-19T21:54:51.690Z,8
2023-02-19T21:57:25.075Z,10
2023-02-19T21:59:58.055Z,7
2023-02-19T22:02:29.061Z,8
2023-02-19T22:05:01.602Z,8
2023-02-19T22:07:35.491Z,16
2023-02-19T22:10:09.247Z,16
2023-02-19T22:12:43.218Z,16
2023-02-19T22:15:18.198Z,8
2023-02-19T22:17:51.456Z,13
2023-02-19T22:20:27.571Z,16
2023-02-19T22:23:00.323Z,13
2023-02-19T22:25:37.964Z,8
2023-02-19T22:28:12.060Z,14
2023-02-19T22:30:50.761Z,10
2023-02-19T22:33:30.480Z,8
2023-02-19T22:36:07.874Z,20
2023-02-19T22:38:40.403Z,21
2023-02-19T22:41:16.918Z,30
2023-02-19T22:43:54.042Z,30
2023-02-19T22:46:27.320Z,25
2023-02-19T22:49:04.936Z,20
2023-02-19T22:51:38.204Z,27
2023-02-19T22:54:11.991Z,25
2023-02-19T22:56:45.696Z,31
2023-02-19T22:59:19.740Z,18
2023-02-19T23:01:57.485Z,16
2023-02-19T23:04:31.806Z,20
2023-02-19T23:07:05.429Z,16
2023-02-19T23:09:44.085Z,18
2023-02-19T23:12:16.136Z,19
2023-02-19T23:14:55.552Z,18
2023-02-19T23:17:30.014Z,17
2023-02-19T23:20:02.256Z,21
2023-02-19T23:22:37.379Z,15
2023-02-19T23:25:19.213Z,12
2023-02-19T23:27:55.053Z,21
2023-02-19T23:30:31.409Z,14
2023-02-19T23:33:08.013Z,16
2023-02-19T23:35:41.171Z,23
2023-02-19T23:38:14.757Z,16
2023-02-19T23:40:47.850Z,24
2023-02-19T23:43:24.558Z,14
2023-02-19T23:46:02.191Z,16
2023-02-19T23:48:38.634Z,14
2023-02-19T23:51:16.228Z,20
2023-02-19T23:53:50.900Z,16
2023-02-19T23:56:27.656Z,18
2023-02-19T23:59:07.390Z,20
